Airfield :
LOGIN :

Register | Disclaimer

   EN    FR    IT 

 










Legend :    VFR   Marginal VFR   IFR   Intensive IFR   Very Intensive IFR
Visi :
Ceiling :
>= 8 km
>= 3000ft
5 to 8 km
1000 to 3000 ft
1500m to 5 km
500 to 1000 ft
800 to 1500m
200 to 500 ft
< 800m
< 200 ft
Symbols :   Thunderstorms  Fog  Heavy snow  Heavy precipitations  Wind > 20 kt
SIGMETs :     Misc.  Thunderstorms  Icing  Turbulence  Mountain Waves  Volcanic Ashes







- Airport Elevation : 297 ft
- IATA code : UIP
- Download approach charts


LFRQ - Quimper Pluguffan

CURRENT METAR :
  • 301630Z AUTO 30010KT 9999 FEW028/// SCT048/// OVC068/// 09/06 Q0997 TEMPO SCT012CB BKN015

EXPIRED METARs :
  • 301600Z AUTO 30010KT 9999 -RA SCT031/// BKN041/// OVC048/// 08/06 Q0997 TEMPO SCT012CB BKN015
  • 301530Z AUTO 33011G23KT 290V020 9000 -RA BKN030/// OVC038/// 08/05 Q0996 TEMPO SCT012CB BKN015
  • 301500Z AUTO 30015KT 4800 -RA BR FEW011/// SCT021/// BKN027/// 08/06 Q0996 TEMPO SCT012CB BKN015 BECMG 9999 NSW
  • 301430Z AUTO 29010KT 240V310 8000 RA FEW013/// BKN025/// BKN030/// 09/07 Q0996 TEMPO SCT012CB BKN015 BECMG NSW
  • 301400Z AUTO 30009KT 270V340 9999 -RA FEW012/// BKN031/// BKN039/// 09/07 Q0995 TEMPO -TSRA SCT012CB BKN015

TAF AMD TAF LFRQ
Valid from the 30 at 15:00 until the 30 at 21:00 UTC


301528Z 3015/3021 30010KT 9999 BKN018 BKN035
PROB30
TEMPO 3015/3017 32015G25KT 4000 -SHRA SCT012CB BKN015
No reported NOTAMs for that airfield.
1 SIGMET reported for the Brest FIR (LFRR) :
 
Embedded thunderstorms
LFRR SIGMET 8 VALID 301500/301700 LFPW
LFRR BREST FIR/UIR EMBD TS OBS WI N4915 W00015 - N4830 W00015 - N4830 W00115 - N4915 W00115 TOP FL300 STNR NC=



MET'MAP, your aeronautical weather chart ! - Copyright ORBIFLY December 2007 - Disclaimer

ORBIFLY MET'MAP TEAM :

Programming & Development : Alexandra Zaïnal
Concept & Development : Baudouin d'Aumeries
Co-Development & Prog : Marc-Olivier Méhu
Technical & hardware support : Manuel Goepfert

Contact : metmap@orbifly.com




SOURCES & CREDITS :

   NOAA